sensor_id;sensor_type;location;lat;lon;timestamp;P1;durP1;ratioP1;P2;durP2;ratioP2
51840;SDS011;37888;53.246;6.658;2023-09-19T00:00:45;5.53;;;1.00;;
51840;SDS011;37888;53.246;6.658;2023-09-19T00:03:12;6.40;;;0.95;;
51840;SDS011;37888;53.246;6.658;2023-09-19T00:05:38;4.85;;;0.98;;
51840;SDS011;37888;53.246;6.658;2023-09-19T00:08:05;5.47;;;1.23;;
51840;SDS011;37888;53.246;6.658;2023-09-19T00:10:34;4.70;;;1.00;;
51840;SDS011;37888;53.246;6.658;2023-09-19T00:13:05;5.72;;;0.90;;
51840;SDS011;37888;53.246;6.658;2023-09-19T00:15:36;4.78;;;1.08;;
51840;SDS011;37888;53.246;6.658;2023-09-19T00:18:06;7.07;;;1.50;;
51840;SDS011;37888;53.246;6.658;2023-09-19T00:20:38;6.32;;;1.20;;
51840;SDS011;37888;53.246;6.658;2023-09-19T00:23:04;4.85;;;1.30;;
51840;SDS011;37888;53.246;6.658;2023-09-19T00:25:30;5.68;;;1.42;;
51840;SDS011;37888;53.246;6.658;2023-09-19T00:27:57;6.40;;;1.35;;
51840;SDS011;37888;53.246;6.658;2023-09-19T00:30:23;5.10;;;1.20;;
51840;SDS011;37888;53.246;6.658;2023-09-19T00:32:49;5.40;;;1.48;;
51840;SDS011;37888;53.246;6.658;2023-09-19T00:35:22;6.57;;;1.55;;
51840;SDS011;37888;53.246;6.658;2023-09-19T00:37:49;5.95;;;1.10;;
51840;SDS011;37888;53.246;6.658;2023-09-19T00:40:15;5.15;;;1.20;;
51840;SDS011;37888;53.246;6.658;2023-09-19T00:42:45;7.13;;;1.17;;
51840;SDS011;37888;53.246;6.658;2023-09-19T00:45:12;6.35;;;1.20;;
51840;SDS011;37888;53.246;6.658;2023-09-19T00:47:40;8.07;;;1.20;;
51840;SDS011;37888;53.246;6.658;2023-09-19T00:50:09;5.10;;;1.38;;
51840;SDS011;37888;53.246;6.658;2023-09-19T00:52:39;4.20;;;1.15;;
51840;SDS011;37888;53.246;6.658;2023-09-19T00:55:10;4.95;;;1.27;;
51840;SDS011;37888;53.246;6.658;2023-09-19T00:57:38;5.28;;;1.20;;
51840;SDS011;37888;53.246;6.658;2023-09-19T01:00:05;5.10;;;1.27;;
51840;SDS011;37888;53.246;6.658;2023-09-19T01:02:33;3.78;;;1.90;;
51840;SDS011;37888;53.246;6.658;2023-09-19T01:05:00;6.70;;;1.13;;
51840;SDS011;37888;53.246;6.658;2023-09-19T01:07:29;5.53;;;1.17;;
51840;SDS011;37888;53.246;6.658;2023-09-19T01:10:00;4.25;;;1.20;;
51840;SDS011;37888;53.246;6.658;2023-09-19T01:21:08;4.93;;;1.13;;
51840;SDS011;37888;53.246;6.658;2023-09-19T01:30:17;4.63;;;1.10;;
51840;SDS011;37888;53.246;6.658;2023-09-19T01:32:49;5.18;;;1.20;;
51840;SDS011;37888;53.246;6.658;2023-09-19T01:35:18;4.63;;;1.02;;
51840;SDS011;37888;53.246;6.658;2023-09-19T01:37:46;5.03;;;1.30;;
51840;SDS011;37888;53.246;6.658;2023-09-19T01:40:18;5.07;;;1.17;;
51840;SDS011;37888;53.246;6.658;2023-09-19T01:51:34;4.22;;;1.00;;
51840;SDS011;37888;53.246;6.658;2023-09-19T01:54:09;4.22;;;1.17;;
51840;SDS011;37888;53.246;6.658;2023-09-19T01:56:53;7.53;;;1.58;;
51840;SDS011;37888;53.246;6.658;2023-09-19T01:59:41;5.55;;;1.15;;
51840;SDS011;37888;53.246;6.658;2023-09-19T02:02:13;4.43;;;1.20;;
51840;SDS011;37888;53.246;6.658;2023-09-19T02:04:43;5.95;;;1.17;;
51840;SDS011;37888;53.246;6.658;2023-09-19T02:07:10;5.28;;;1.23;;
51840;SDS011;37888;53.246;6.658;2023-09-19T02:09:35;4.60;;;1.23;;
51840;SDS011;37888;53.246;6.658;2023-09-19T02:12:07;6.40;;;1.10;;
51840;SDS011;37888;53.246;6.658;2023-09-19T02:14:33;6.18;;;1.15;;
51840;SDS011;37888;53.246;6.658;2023-09-19T02:17:01;6.68;;;1.17;;
51840;SDS011;37888;53.246;6.658;2023-09-19T02:19:32;3.33;;;1.02;;
51840;SDS011;37888;53.246;6.658;2023-09-19T02:21:59;6.50;;;1.30;;
51840;SDS011;37888;53.246;6.658;2023-09-19T02:24:28;5.30;;;1.13;;
51840;SDS011;37888;53.246;6.658;2023-09-19T02:26:54;3.78;;;0.80;;
51840;SDS011;37888;53.246;6.658;2023-09-19T02:29:25;9.15;;;1.13;;
51840;SDS011;37888;53.246;6.658;2023-09-19T02:31:52;4.35;;;1.05;;
51840;SDS011;37888;53.246;6.658;2023-09-19T02:34:21;8.57;;;1.48;;
51840;SDS011;37888;53.246;6.658;2023-09-19T02:36:48;5.40;;;0.73;;
51840;SDS011;37888;53.246;6.658;2023-09-19T02:39:13;5.40;;;0.90;;
51840;SDS011;37888;53.246;6.658;2023-09-19T02:41:39;5.20;;;1.08;;
51840;SDS011;37888;53.246;6.658;2023-09-19T02:44:07;8.52;;;1.38;;
51840;SDS011;37888;53.246;6.658;2023-09-19T02:46:33;3.58;;;1.10;;
51840;SDS011;37888;53.246;6.658;2023-09-19T02:49:01;6.53;;;1.20;;
51840;SDS011;37888;53.246;6.658;2023-09-19T02:51:53;2.95;;;0.88;;
51840;SDS011;37888;53.246;6.658;2023-09-19T02:54:21;6.55;;;1.40;;
51840;SDS011;37888;53.246;6.658;2023-09-19T02:57:05;5.95;;;1.00;;
51840;SDS011;37888;53.246;6.658;2023-09-19T02:59:34;6.67;;;1.10;;
51840;SDS011;37888;53.246;6.658;2023-09-19T03:02:21;5.35;;;1.30;;
51840;SDS011;37888;53.246;6.658;2023-09-19T03:04:49;8.27;;;1.17;;
51840;SDS011;37888;53.246;6.658;2023-09-19T03:07:16;4.10;;;1.63;;
51840;SDS011;37888;53.246;6.658;2023-09-19T03:09:42;4.22;;;1.30;;
51840;SDS011;37888;53.246;6.658;2023-09-19T03:12:12;5.32;;;1.15;;
51840;SDS011;37888;53.246;6.658;2023-09-19T03:14:41;6.68;;;1.00;;
51840;SDS011;37888;53.246;6.658;2023-09-19T03:17:09;5.78;;;1.08;;
51840;SDS011;37888;53.246;6.658;2023-09-19T03:19:35;4.47;;;1.13;;
51840;SDS011;37888;53.246;6.658;2023-09-19T03:22:07;3.13;;;0.75;;
51840;SDS011;37888;53.246;6.658;2023-09-19T03:24:33;4.15;;;1.38;;
51840;SDS011;37888;53.246;6.658;2023-09-19T03:27:01;9.20;;;1.33;;
51840;SDS011;37888;53.246;6.658;2023-09-19T03:29:28;6.38;;;0.98;;
51840;SDS011;37888;53.246;6.658;2023-09-19T03:31:57;6.32;;;1.10;;
51840;SDS011;37888;53.246;6.658;2023-09-19T03:34:23;5.15;;;1.08;;
51840;SDS011;37888;53.246;6.658;2023-09-19T03:36:49;4.45;;;0.95;;
51840;SDS011;37888;53.246;6.658;2023-09-19T03:39:33;4.93;;;1.10;;
51840;SDS011;37888;53.246;6.658;2023-09-19T03:41:59;4.93;;;1.10;;
51840;SDS011;37888;53.246;6.658;2023-09-19T03:44:25;5.05;;;0.77;;
51840;SDS011;37888;53.246;6.658;2023-09-19T03:46:50;5.78;;;1.10;;
51840;SDS011;37888;53.246;6.658;2023-09-19T03:49:16;7.03;;;1.10;;
51840;SDS011;37888;53.246;6.658;2023-09-19T03:51:42;7.25;;;1.25;;
51840;SDS011;37888;53.246;6.658;2023-09-19T03:54:08;5.75;;;1.10;;
51840;SDS011;37888;53.246;6.658;2023-09-19T03:56:34;3.53;;;1.05;;
51840;SDS011;37888;53.246;6.658;2023-09-19T03:58:59;6.47;;;1.30;;
51840;SDS011;37888;53.246;6.658;2023-09-19T04:01:27;3.33;;;1.02;;
51840;SDS011;37888;53.246;6.658;2023-09-19T04:03:57;3.45;;;1.17;;
51840;SDS011;37888;53.246;6.658;2023-09-19T04:06:26;5.60;;;1.10;;
51840;SDS011;37888;53.246;6.658;2023-09-19T04:08:52;5.25;;;1.35;;
51840;SDS011;37888;53.246;6.658;2023-09-19T04:11:20;5.05;;;1.23;;
51840;SDS011;37888;53.246;6.658;2023-09-19T04:13:46;6.90;;;1.25;;
51840;SDS011;37888;53.246;6.658;2023-09-19T04:16:13;7.43;;;1.40;;
51840;SDS011;37888;53.246;6.658;2023-09-19T04:18:39;3.88;;;1.05;;
51840;SDS011;37888;53.246;6.658;2023-09-19T04:21:08;6.47;;;1.40;;
51840;SDS011;37888;53.246;6.658;2023-09-19T04:23:35;5.82;;;1.05;;
51840;SDS011;37888;53.246;6.658;2023-09-19T04:26:05;4.03;;;1.20;;
51840;SDS011;37888;53.246;6.658;2023-09-19T04:31:16;3.25;;;1.00;;
51840;SDS011;37888;53.246;6.658;2023-09-19T04:33:46;5.72;;;1.00;;
51840;SDS011;37888;53.246;6.658;2023-09-19T04:36:12;8.50;;;1.35;;
51840;SDS011;37888;53.246;6.658;2023-09-19T04:38:38;8.30;;;1.60;;
51840;SDS011;37888;53.246;6.658;2023-09-19T04:41:05;5.83;;;1.50;;
51840;SDS011;37888;53.246;6.658;2023-09-19T04:43:30;5.10;;;1.00;;
51840;SDS011;37888;53.246;6.658;2023-09-19T04:45:56;6.40;;;1.20;;
51840;SDS011;37888;53.246;6.658;2023-09-19T04:48:25;4.20;;;1.08;;
51840;SDS011;37888;53.246;6.658;2023-09-19T04:50:51;5.07;;;1.20;;
51840;SDS011;37888;53.246;6.658;2023-09-19T04:53:18;6.03;;;1.00;;
51840;SDS011;37888;53.246;6.658;2023-09-19T04:55:50;6.18;;;1.40;;
51840;SDS011;37888;53.246;6.658;2023-09-19T04:58:21;5.20;;;1.02;;
51840;SDS011;37888;53.246;6.658;2023-09-19T05:00:50;5.18;;;1.25;;
51840;SDS011;37888;53.246;6.658;2023-09-19T05:03:16;7.68;;;1.45;;
51840;SDS011;37888;53.246;6.658;2023-09-19T05:05:48;4.13;;;1.15;;
51840;SDS011;37888;53.246;6.658;2023-09-19T05:08:15;3.88;;;1.08;;
51840;SDS011;37888;53.246;6.658;2023-09-19T05:10:41;4.13;;;1.25;;
51840;SDS011;37888;53.246;6.658;2023-09-19T05:13:09;5.38;;;1.15;;
51840;SDS011;37888;53.246;6.658;2023-09-19T05:15:37;4.63;;;1.20;;
51840;SDS011;37888;53.246;6.658;2023-09-19T05:18:10;4.82;;;1.10;;
51840;SDS011;37888;53.246;6.658;2023-09-19T05:20:36;3.55;;;0.82;;
51840;SDS011;37888;53.246;6.658;2023-09-19T05:23:06;5.72;;;1.60;;
51840;SDS011;37888;53.246;6.658;2023-09-19T05:25:41;4.45;;;1.10;;
51840;SDS011;37888;53.246;6.658;2023-09-19T05:28:11;5.50;;;1.20;;
51840;SDS011;37888;53.246;6.658;2023-09-19T05:30:43;5.00;;;1.30;;
51840;SDS011;37888;53.246;6.658;2023-09-19T05:36:19;5.75;;;1.50;;
51840;SDS011;37888;53.246;6.658;2023-09-19T05:38:45;4.60;;;1.00;;
51840;SDS011;37888;53.246;6.658;2023-09-19T05:41:15;6.95;;;1.48;;
51840;SDS011;37888;53.246;6.658;2023-09-19T05:43:41;9.38;;;1.35;;
51840;SDS011;37888;53.246;6.658;2023-09-19T05:46:07;2.35;;;0.90;;
51840;SDS011;37888;53.246;6.658;2023-09-19T05:48:33;5.15;;;1.30;;
51840;SDS011;37888;53.246;6.658;2023-09-19T05:50:59;7.78;;;1.42;;
51840;SDS011;37888;53.246;6.658;2023-09-19T05:53:26;4.40;;;1.40;;
51840;SDS011;37888;53.246;6.658;2023-09-19T05:55:52;5.07;;;0.98;;
51840;SDS011;37888;53.246;6.658;2023-09-19T05:58:21;6.35;;;1.10;;
51840;SDS011;37888;53.246;6.658;2023-09-19T06:00:46;6.40;;;1.38;;
51840;SDS011;37888;53.246;6.658;2023-09-19T06:05:40;5.65;;;1.20;;
51840;SDS011;37888;53.246;6.658;2023-09-19T06:08:06;7.88;;;1.40;;
51840;SDS011;37888;53.246;6.658;2023-09-19T06:10:36;6.10;;;1.25;;
51840;SDS011;37888;53.246;6.658;2023-09-19T06:13:04;6.70;;;1.23;;
51840;SDS011;37888;53.246;6.658;2023-09-19T06:21:01;5.50;;;1.40;;
51840;SDS011;37888;53.246;6.658;2023-09-19T06:23:33;6.30;;;1.30;;
51840;SDS011;37888;53.246;6.658;2023-09-19T06:26:01;8.30;;;1.35;;
51840;SDS011;37888;53.246;6.658;2023-09-19T06:28:29;8.55;;;1.48;;
51840;SDS011;37888;53.246;6.658;2023-09-19T06:30:58;4.53;;;1.25;;
51840;SDS011;37888;53.246;6.658;2023-09-19T06:33:26;6.72;;;1.10;;
51840;SDS011;37888;53.246;6.658;2023-09-19T06:35:52;3.85;;;0.88;;
51840;SDS011;37888;53.246;6.658;2023-09-19T06:38:24;4.80;;;1.10;;
51840;SDS011;37888;53.246;6.658;2023-09-19T06:40:50;8.02;;;1.50;;
51840;SDS011;37888;53.246;6.658;2023-09-19T06:43:15;5.30;;;1.20;;
51840;SDS011;37888;53.246;6.658;2023-09-19T06:45:42;5.53;;;1.17;;
51840;SDS011;37888;53.246;6.658;2023-09-19T06:48:08;10.18;;;1.38;;
51840;SDS011;37888;53.246;6.658;2023-09-19T06:50:35;4.35;;;1.15;;
51840;SDS011;37888;53.246;6.658;2023-09-19T06:53:01;3.88;;;1.00;;
51840;SDS011;37888;53.246;6.658;2023-09-19T06:55:27;5.25;;;0.93;;
51840;SDS011;37888;53.246;6.658;2023-09-19T06:57:56;6.72;;;1.15;;
51840;SDS011;37888;53.246;6.658;2023-09-19T07:00:22;7.88;;;0.90;;
51840;SDS011;37888;53.246;6.658;2023-09-19T07:02:58;3.95;;;1.23;;
51840;SDS011;37888;53.246;6.658;2023-09-19T07:05:33;6.13;;;1.20;;
51840;SDS011;37888;53.246;6.658;2023-09-19T07:08:06;5.40;;;1.45;;
51840;SDS011;37888;53.246;6.658;2023-09-19T07:10:33;6.40;;;1.83;;
51840;SDS011;37888;53.246;6.658;2023-09-19T07:12:59;3.38;;;1.30;;
51840;SDS011;37888;53.246;6.658;2023-09-19T07:15:31;6.60;;;1.60;;
51840;SDS011;37888;53.246;6.658;2023-09-19T07:18:02;4.75;;;1.77;;
51840;SDS011;37888;53.246;6.658;2023-09-19T07:20:27;6.72;;;1.30;;
51840;SDS011;37888;53.246;6.658;2023-09-19T07:22:56;7.65;;;1.10;;
51840;SDS011;37888;53.246;6.658;2023-09-19T07:25:26;5.82;;;1.20;;
51840;SDS011;37888;53.246;6.658;2023-09-19T07:27:52;5.20;;;0.80;;
51840;SDS011;37888;53.246;6.658;2023-09-19T07:30:20;4.13;;;1.00;;
51840;SDS011;37888;53.246;6.658;2023-09-19T07:32:46;5.85;;;1.10;;
51840;SDS011;37888;53.246;6.658;2023-09-19T07:35:13;3.35;;;0.82;;
51840;SDS011;37888;53.246;6.658;2023-09-19T07:37:40;8.27;;;1.55;;
51840;SDS011;37888;53.246;6.658;2023-09-19T07:40:06;6.10;;;1.35;;
51840;SDS011;37888;53.246;6.658;2023-09-19T07:42:33;6.65;;;1.65;;
51840;SDS011;37888;53.246;6.658;2023-09-19T07:45:02;4.68;;;1.30;;
51840;SDS011;37888;53.246;6.658;2023-09-19T07:47:28;6.80;;;1.33;;
51840;SDS011;37888;53.246;6.658;2023-09-19T07:49:55;10.30;;;1.42;;
51840;SDS011;37888;53.246;6.658;2023-09-19T07:52:21;5.75;;;1.73;;
51840;SDS011;37888;53.246;6.658;2023-09-19T07:54:48;5.20;;;1.17;;
51840;SDS011;37888;53.246;6.658;2023-09-19T07:57:14;5.95;;;1.50;;
51840;SDS011;37888;53.246;6.658;2023-09-19T07:59:41;6.43;;;1.80;;
51840;SDS011;37888;53.246;6.658;2023-09-19T08:02:07;6.15;;;1.67;;
51840;SDS011;37888;53.246;6.658;2023-09-19T08:04:35;5.82;;;1.40;;
51840;SDS011;37888;53.246;6.658;2023-09-19T08:07:01;4.68;;;1.55;;
51840;SDS011;37888;53.246;6.658;2023-09-19T08:09:29;4.28;;;1.20;;
51840;SDS011;37888;53.246;6.658;2023-09-19T08:11:58;5.72;;;1.17;;
51840;SDS011;37888;53.246;6.658;2023-09-19T08:14:27;6.90;;;1.27;;
51840;SDS011;37888;53.246;6.658;2023-09-19T08:16:57;4.67;;;1.20;;
51840;SDS011;37888;53.246;6.658;2023-09-19T08:19:24;4.95;;;1.25;;
51840;SDS011;37888;53.246;6.658;2023-09-19T08:21:55;6.25;;;1.40;;
51840;SDS011;37888;53.246;6.658;2023-09-19T08:24:24;5.97;;;1.05;;
51840;SDS011;37888;53.246;6.658;2023-09-19T08:26:57;5.30;;;1.30;;
51840;SDS011;37888;53.246;6.658;2023-09-19T08:29:23;5.75;;;1.15;;
51840;SDS011;37888;53.246;6.658;2023-09-19T08:31:55;5.28;;;1.27;;
51840;SDS011;37888;53.246;6.658;2023-09-19T08:34:22;5.30;;;0.95;;
51840;SDS011;37888;53.246;6.658;2023-09-19T08:36:54;5.93;;;1.30;;
51840;SDS011;37888;53.246;6.658;2023-09-19T08:39:23;3.90;;;1.10;;
51840;SDS011;37888;53.246;6.658;2023-09-19T08:41:49;5.63;;;1.27;;
51840;SDS011;37888;53.246;6.658;2023-09-19T08:44:22;5.95;;;1.20;;
51840;SDS011;37888;53.246;6.658;2023-09-19T08:46:49;5.35;;;1.40;;
51840;SDS011;37888;53.246;6.658;2023-09-19T08:49:24;5.03;;;1.23;;
51840;SDS011;37888;53.246;6.658;2023-09-19T08:52:01;7.72;;;1.65;;
51840;SDS011;37888;53.246;6.658;2023-09-19T08:54:37;4.97;;;1.10;;
51840;SDS011;37888;53.246;6.658;2023-09-19T08:57:08;6.47;;;1.60;;
51840;SDS011;37888;53.246;6.658;2023-09-19T08:59:37;4.45;;;1.20;;
51840;SDS011;37888;53.246;6.658;2023-09-19T09:02:13;5.22;;;1.33;;
51840;SDS011;37888;53.246;6.658;2023-09-19T09:04:43;5.13;;;1.40;;
51840;SDS011;37888;53.246;6.658;2023-09-19T09:07:14;6.28;;;1.70;;
51840;SDS011;37888;53.246;6.658;2023-09-19T09:09:44;5.95;;;1.42;;
51840;SDS011;37888;53.246;6.658;2023-09-19T09:12:11;6.47;;;1.55;;
51840;SDS011;37888;53.246;6.658;2023-09-19T09:14:47;5.47;;;1.50;;
51840;SDS011;37888;53.246;6.658;2023-09-19T09:17:16;4.97;;;1.50;;
51840;SDS011;37888;53.246;6.658;2023-09-19T09:19:45;3.08;;;1.35;;
51840;SDS011;37888;53.246;6.658;2023-09-19T09:24:50;6.70;;;1.40;;
51840;SDS011;37888;53.246;6.658;2023-09-19T09:27:19;4.57;;;1.25;;
51840;SDS011;37888;53.246;6.658;2023-09-19T09:29:48;6.07;;;1.97;;
51840;SDS011;37888;53.246;6.658;2023-09-19T09:32:25;6.28;;;1.63;;
51840;SDS011;37888;53.246;6.658;2023-09-19T09:34:55;5.13;;;1.73;;
51840;SDS011;37888;53.246;6.658;2023-09-19T09:37:23;5.35;;;1.67;;
51840;SDS011;37888;53.246;6.658;2023-09-19T09:39:55;8.30;;;1.80;;
51840;SDS011;37888;53.246;6.658;2023-09-19T09:42:30;7.70;;;1.70;;
51840;SDS011;37888;53.246;6.658;2023-09-19T09:45:14;8.25;;;2.25;;
51840;SDS011;37888;53.246;6.658;2023-09-19T09:47:43;6.20;;;1.88;;
51840;SDS011;37888;53.246;6.658;2023-09-19T09:50:23;6.45;;;1.77;;
51840;SDS011;37888;53.246;6.658;2023-09-19T09:53:23;7.97;;;2.10;;
51840;SDS011;37888;53.246;6.658;2023-09-19T09:55:59;5.95;;;1.80;;
51840;SDS011;37888;53.246;6.658;2023-09-19T10:01:02;8.10;;;1.70;;
51840;SDS011;37888;53.246;6.658;2023-09-19T10:03:40;4.70;;;1.60;;
51840;SDS011;37888;53.246;6.658;2023-09-19T10:06:12;7.97;;;2.03;;
51840;SDS011;37888;53.246;6.658;2023-09-19T10:11:40;11.25;;;1.65;;
51840;SDS011;37888;53.246;6.658;2023-09-19T10:14:11;6.32;;;1.65;;
51840;SDS011;37888;53.246;6.658;2023-09-19T10:16:45;6.95;;;2.10;;
51840;SDS011;37888;53.246;6.658;2023-09-19T10:19:14;6.43;;;1.75;;
51840;SDS011;37888;53.246;6.658;2023-09-19T10:21:47;6.25;;;1.80;;
51840;SDS011;37888;53.246;6.658;2023-09-19T10:24:15;7.13;;;1.92;;
51840;SDS011;37888;53.246;6.658;2023-09-19T10:26:42;5.05;;;1.52;;
51840;SDS011;37888;53.246;6.658;2023-09-19T10:29:10;6.97;;;1.60;;
51840;SDS011;37888;53.246;6.658;2023-09-19T10:31:39;6.63;;;1.88;;
51840;SDS011;37888;53.246;6.658;2023-09-19T10:34:12;5.97;;;1.67;;
51840;SDS011;37888;53.246;6.658;2023-09-19T10:36:40;7.80;;;1.85;;
51840;SDS011;37888;53.246;6.658;2023-09-19T10:39:10;6.72;;;1.77;;
51840;SDS011;37888;53.246;6.658;2023-09-19T10:41:38;8.25;;;1.95;;
51840;SDS011;37888;53.246;6.658;2023-09-19T10:44:05;8.25;;;1.70;;
51840;SDS011;37888;53.246;6.658;2023-09-19T10:46:31;4.87;;;1.70;;
51840;SDS011;37888;53.246;6.658;2023-09-19T10:49:01;8.38;;;1.85;;
51840;SDS011;37888;53.246;6.658;2023-09-19T10:51:29;4.88;;;1.40;;
51840;SDS011;37888;53.246;6.658;2023-09-19T10:54:08;7.10;;;1.52;;
51840;SDS011;37888;53.246;6.658;2023-09-19T10:56:39;7.18;;;1.55;;
51840;SDS011;37888;53.246;6.658;2023-09-19T10:59:13;5.47;;;1.48;;
51840;SDS011;37888;53.246;6.658;2023-09-19T11:01:42;8.80;;;2.03;;
51840;SDS011;37888;53.246;6.658;2023-09-19T11:07:08;6.18;;;1.58;;
51840;SDS011;37888;53.246;6.658;2023-09-19T11:15:06;7.32;;;1.67;;
51840;SDS011;37888;53.246;6.658;2023-09-19T11:17:40;5.78;;;1.65;;
51840;SDS011;37888;53.246;6.658;2023-09-19T11:30:50;5.80;;;1.80;;
51840;SDS011;37888;53.246;6.658;2023-09-19T11:36:01;6.13;;;1.55;;
51840;SDS011;37888;53.246;6.658;2023-09-19T11:38:57;6.97;;;1.55;;
51840;SDS011;37888;53.246;6.658;2023-09-19T11:43:53;5.28;;;1.80;;
51840;SDS011;37888;53.246;6.658;2023-09-19T11:46:53;5.40;;;1.75;;
51840;SDS011;37888;53.246;6.658;2023-09-19T11:49:25;7.32;;;1.58;;
51840;SDS011;37888;53.246;6.658;2023-09-19T11:51:55;7.95;;;1.42;;
51840;SDS011;37888;53.246;6.658;2023-09-19T11:54:21;5.33;;;1.70;;
51840;SDS011;37888;53.246;6.658;2023-09-19T11:56:48;7.97;;;1.70;;
51840;SDS011;37888;53.246;6.658;2023-09-19T11:59:22;8.77;;;1.73;;
51840;SDS011;37888;53.246;6.658;2023-09-19T12:01:56;7.57;;;1.55;;
51840;SDS011;37888;53.246;6.658;2023-09-19T12:04:41;5.93;;;1.45;;
51840;SDS011;37888;53.246;6.658;2023-09-19T12:07:14;8.13;;;1.67;;
51840;SDS011;37888;53.246;6.658;2023-09-19T12:12:23;8.73;;;1.80;;
51840;SDS011;37888;53.246;6.658;2023-09-19T12:14:52;7.82;;;1.95;;
51840;SDS011;37888;53.246;6.658;2023-09-19T12:19:52;6.38;;;1.67;;
51840;SDS011;37888;53.246;6.658;2023-09-19T12:22:19;9.10;;;1.38;;
51840;SDS011;37888;53.246;6.658;2023-09-19T12:24:46;5.80;;;1.88;;
51840;SDS011;37888;53.246;6.658;2023-09-19T12:29:45;7.35;;;1.90;;
51840;SDS011;37888;53.246;6.658;2023-09-19T12:32:16;7.40;;;1.60;;
51840;SDS011;37888;53.246;6.658;2023-09-19T12:34:50;5.70;;;1.42;;
51840;SDS011;37888;53.246;6.658;2023-09-19T12:37:17;7.10;;;1.25;;
51840;SDS011;37888;53.246;6.658;2023-09-19T12:40:03;7.28;;;1.42;;
51840;SDS011;37888;53.246;6.658;2023-09-19T12:43:11;7.72;;;1.20;;
51840;SDS011;37888;53.246;6.658;2023-09-19T12:45:40;7.43;;;1.25;;
51840;SDS011;37888;53.246;6.658;2023-09-19T12:53:42;7.05;;;1.10;;
51840;SDS011;37888;53.246;6.658;2023-09-19T12:56:10;6.28;;;1.42;;
51840;SDS011;37888;53.246;6.658;2023-09-19T12:58:55;5.25;;;1.15;;
51840;SDS011;37888;53.246;6.658;2023-09-19T13:01:24;5.07;;;1.58;;
51840;SDS011;37888;53.246;6.658;2023-09-19T13:04:10;4.70;;;1.23;;
51840;SDS011;37888;53.246;6.658;2023-09-19T13:06:47;8.25;;;1.20;;
51840;SDS011;37888;53.246;6.658;2023-09-19T13:09:17;5.90;;;1.33;;
51840;SDS011;37888;53.246;6.658;2023-09-19T13:11:46;5.75;;;1.33;;
51840;SDS011;37888;53.246;6.658;2023-09-19T13:14:25;6.43;;;1.48;;
51840;SDS011;37888;53.246;6.658;2023-09-19T13:17:08;5.40;;;1.10;;
51840;SDS011;37888;53.246;6.658;2023-09-19T13:19:42;5.18;;;1.23;;
51840;SDS011;37888;53.246;6.658;2023-09-19T13:25:10;8.15;;;1.30;;
51840;SDS011;37888;53.246;6.658;2023-09-19T13:27:47;4.20;;;1.33;;
51840;SDS011;37888;53.246;6.658;2023-09-19T13:30:16;5.60;;;0.85;;
51840;SDS011;37888;53.246;6.658;2023-09-19T13:32:46;5.32;;;1.10;;
51840;SDS011;37888;53.246;6.658;2023-09-19T13:35:13;6.78;;;1.23;;
51840;SDS011;37888;53.246;6.658;2023-09-19T13:37:40;5.00;;;1.30;;
51840;SDS011;37888;53.246;6.658;2023-09-19T13:40:07;4.75;;;1.10;;
51840;SDS011;37888;53.246;6.658;2023-09-19T13:42:34;5.85;;;1.33;;
51840;SDS011;37888;53.246;6.658;2023-09-19T13:45:02;3.35;;;1.00;;
51840;SDS011;37888;53.246;6.658;2023-09-19T13:47:33;4.35;;;0.82;;
51840;SDS011;37888;53.246;6.658;2023-09-19T13:49:59;5.40;;;1.05;;
51840;SDS011;37888;53.246;6.658;2023-09-19T13:52:29;5.85;;;1.23;;
51840;SDS011;37888;53.246;6.658;2023-09-19T13:54:56;5.30;;;1.13;;
51840;SDS011;37888;53.246;6.658;2023-09-19T13:57:22;3.25;;;0.93;;
51840;SDS011;37888;53.246;6.658;2023-09-19T13:59:49;5.38;;;1.20;;
51840;SDS011;37888;53.246;6.658;2023-09-19T14:02:15;7.45;;;1.80;;
51840;SDS011;37888;53.246;6.658;2023-09-19T14:04:43;4.82;;;1.05;;
51840;SDS011;37888;53.246;6.658;2023-09-19T14:07:09;3.00;;;1.10;;
51840;SDS011;37888;53.246;6.658;2023-09-19T14:09:36;4.72;;;1.08;;
51840;SDS011;37888;53.246;6.658;2023-09-19T14:12:03;6.80;;;0.85;;
51840;SDS011;37888;53.246;6.658;2023-09-19T14:14:29;4.07;;;0.80;;
51840;SDS011;37888;53.246;6.658;2023-09-19T14:16:55;4.78;;;0.80;;
51840;SDS011;37888;53.246;6.658;2023-09-19T14:19:21;2.97;;;1.00;;
51840;SDS011;37888;53.246;6.658;2023-09-19T14:21:46;4.82;;;0.88;;
51840;SDS011;37888;53.246;6.658;2023-09-19T14:24:18;4.15;;;1.20;;
51840;SDS011;37888;53.246;6.658;2023-09-19T14:26:45;4.38;;;0.82;;
51840;SDS011;37888;53.246;6.658;2023-09-19T14:29:11;2.63;;;1.23;;
51840;SDS011;37888;53.246;6.658;2023-09-19T14:31:37;4.10;;;1.17;;
51840;SDS011;37888;53.246;6.658;2023-09-19T14:34:06;4.22;;;0.80;;
51840;SDS011;37888;53.246;6.658;2023-09-19T14:36:35;3.42;;;0.95;;
51840;SDS011;37888;53.246;6.658;2023-09-19T14:39:01;5.28;;;0.80;;
51840;SDS011;37888;53.246;6.658;2023-09-19T14:41:27;4.35;;;0.82;;
51840;SDS011;37888;53.246;6.658;2023-09-19T14:43:53;4.05;;;0.90;;
51840;SDS011;37888;53.246;6.658;2023-09-19T14:48:46;3.40;;;0.70;;
51840;SDS011;37888;53.246;6.658;2023-09-19T14:51:16;4.90;;;1.10;;
51840;SDS011;37888;53.246;6.658;2023-09-19T14:53:44;6.45;;;1.50;;
51840;SDS011;37888;53.246;6.658;2023-09-19T14:56:10;4.47;;;0.85;;
51840;SDS011;37888;53.246;6.658;2023-09-19T14:58:36;8.27;;;1.20;;
51840;SDS011;37888;53.246;6.658;2023-09-19T15:01:10;3.47;;;1.10;;
51840;SDS011;37888;53.246;6.658;2023-09-19T15:03:38;4.15;;;1.20;;
51840;SDS011;37888;53.246;6.658;2023-09-19T15:06:05;3.55;;;1.00;;
51840;SDS011;37888;53.246;6.658;2023-09-19T15:08:39;1.98;;;0.73;;
51840;SDS011;37888;53.246;6.658;2023-09-19T15:11:08;3.70;;;0.90;;
51840;SDS011;37888;53.246;6.658;2023-09-19T15:13:35;3.15;;;0.95;;
51840;SDS011;37888;53.246;6.658;2023-09-19T15:16:05;2.65;;;0.90;;
51840;SDS011;37888;53.246;6.658;2023-09-19T15:18:39;3.92;;;1.17;;
51840;SDS011;37888;53.246;6.658;2023-09-19T15:21:10;4.10;;;0.70;;
51840;SDS011;37888;53.246;6.658;2023-09-19T15:23:36;1.77;;;0.60;;
51840;SDS011;37888;53.246;6.658;2023-09-19T15:26:04;7.47;;;0.85;;
51840;SDS011;37888;53.246;6.658;2023-09-19T15:28:31;3.30;;;0.65;;
51840;SDS011;37888;53.246;6.658;2023-09-19T15:31:01;4.45;;;0.75;;
51840;SDS011;37888;53.246;6.658;2023-09-19T15:33:37;5.78;;;0.80;;
51840;SDS011;37888;53.246;6.658;2023-09-19T15:36:07;3.97;;;0.90;;
51840;SDS011;37888;53.246;6.658;2023-09-19T15:41:40;3.63;;;0.80;;
51840;SDS011;37888;53.246;6.658;2023-09-19T15:44:16;3.40;;;0.63;;
51840;SDS011;37888;53.246;6.658;2023-09-19T15:46:44;4.03;;;0.88;;
51840;SDS011;37888;53.246;6.658;2023-09-19T15:49:10;4.73;;;1.30;;
51840;SDS011;37888;53.246;6.658;2023-09-19T15:51:36;2.70;;;0.60;;
51840;SDS011;37888;53.246;6.658;2023-09-19T15:54:15;2.65;;;0.80;;
51840;SDS011;37888;53.246;6.658;2023-09-19T15:56:41;3.92;;;1.00;;
51840;SDS011;37888;53.246;6.658;2023-09-19T15:59:08;4.88;;;1.00;;
51840;SDS011;37888;53.246;6.658;2023-09-19T16:01:34;3.45;;;0.68;;
51840;SDS011;37888;53.246;6.658;2023-09-19T16:04:02;2.63;;;0.80;;
51840;SDS011;37888;53.246;6.658;2023-09-19T16:06:28;5.57;;;0.88;;
51840;SDS011;37888;53.246;6.658;2023-09-19T16:08:59;2.20;;;0.70;;
51840;SDS011;37888;53.246;6.658;2023-09-19T16:11:26;1.85;;;0.63;;
51840;SDS011;37888;53.246;6.658;2023-09-19T16:13:53;2.95;;;0.85;;
51840;SDS011;37888;53.246;6.658;2023-09-19T16:16:19;4.45;;;0.70;;
51840;SDS011;37888;53.246;6.658;2023-09-19T16:18:58;2.80;;;0.80;;
51840;SDS011;37888;53.246;6.658;2023-09-19T16:21:32;2.30;;;0.70;;
51840;SDS011;37888;53.246;6.658;2023-09-19T16:24:03;2.38;;;0.80;;
51840;SDS011;37888;53.246;6.658;2023-09-19T16:26:29;4.18;;;1.10;;
51840;SDS011;37888;53.246;6.658;2023-09-19T16:28:56;3.47;;;0.80;;
51840;SDS011;37888;53.246;6.658;2023-09-19T16:31:26;2.25;;;0.98;;
51840;SDS011;37888;53.246;6.658;2023-09-19T16:33:56;3.90;;;0.80;;